sensor_id;sensor_type;location;lat;lon;timestamp;pressure;altitude;pressure_sealevel;temperature;humidity
58686;BME280;44465;53.206;-6.106;2023-12-07T00:01:09;100100.59;;;21.15;47.97
58686;BME280;44465;53.206;-6.106;2023-12-07T00:03:35;100099.63;;;21.16;48.31
58686;BME280;44465;53.206;-6.106;2023-12-07T00:06:00;100088.16;;;21.14;48.19
58686;BME280;44465;53.206;-6.106;2023-12-07T00:08:26;100090.84;;;21.14;48.26
58686;BME280;44465;53.206;-6.106;2023-12-07T00:10:51;100084.63;;;21.13;48.18
58686;BME280;44465;53.206;-6.106;2023-12-07T00:15:42;100089.88;;;21.15;48.31
58686;BME280;44465;53.206;-6.106;2023-12-07T00:18:07;100069.22;;;21.17;47.88
58686;BME280;44465;53.206;-6.106;2023-12-07T00:20:33;100068.47;;;21.15;48.12
58686;BME280;44465;53.206;-6.106;2023-12-07T00:22:58;100057.94;;;21.12;48.19
58686;BME280;44465;53.206;-6.106;2023-12-07T00:25:24;100060.53;;;21.13;47.88
58686;BME280;44465;53.206;-6.106;2023-12-07T00:27:49;100045.94;;;21.04;48.08
58686;BME280;44465;53.206;-6.106;2023-12-07T00:30:15;100051.88;;;21.10;48.15
58686;BME280;44465;53.206;-6.106;2023-12-07T00:32:41;100037.59;;;21.09;48.29
58686;BME280;44465;53.206;-6.106;2023-12-07T00:35:10;100059.66;;;21.13;47.83
58686;BME280;44465;53.206;-6.106;2023-12-07T00:40:01;100036.97;;;21.05;48.02
58686;BME280;44465;53.206;-6.106;2023-12-07T00:42:27;100040.47;;;21.06;47.79
58686;BME280;44465;53.206;-6.106;2023-12-07T00:44:53;100043.84;;;21.10;47.89
58686;BME280;44465;53.206;-6.106;2023-12-07T00:47:19;100020.91;;;21.05;48.00
58686;BME280;44465;53.206;-6.106;2023-12-07T00:49:44;100012.09;;;21.03;47.71
58686;BME280;44465;53.206;-6.106;2023-12-07T00:52:10;99986.09;;;21.05;47.85
58686;BME280;44465;53.206;-6.106;2023-12-07T00:54:35;100006.56;;;21.06;48.35
58686;BME280;44465;53.206;-6.106;2023-12-07T00:57:01;100013.63;;;21.07;47.89
58686;BME280;44465;53.206;-6.106;2023-12-07T00:59:26;100000.44;;;21.04;48.11
58686;BME280;44465;53.206;-6.106;2023-12-07T01:01:52;99932.56;;;20.65;47.93
58686;BME280;44465;53.206;-6.106;2023-12-07T01:04:28;99985.13;;;20.94;48.01
58686;BME280;44465;53.206;-6.106;2023-12-07T01:14:07;99922.53;;;20.69;47.68
58686;BME280;44465;53.206;-6.106;2023-12-07T01:16:59;99881.41;;;20.57;47.71
58686;BME280;44465;53.206;-6.106;2023-12-07T01:19:54;99922.81;;;20.79;47.60
58686;BME280;44465;53.206;-6.106;2023-12-07T01:33:27;99868.34;;;20.52;47.68
58686;BME280;44465;53.206;-6.106;2023-12-07T01:35:59;99918.94;;;20.83;47.91
58686;BME280;44465;53.206;-6.106;2023-12-07T01:38:30;99903.91;;;20.67;47.97
58686;BME280;44465;53.206;-6.106;2023-12-07T01:40:56;99868.34;;;20.52;47.72
58686;BME280;44465;53.206;-6.106;2023-12-07T01:43:22;99915.31;;;20.84;47.70
58686;BME280;44465;53.206;-6.106;2023-12-07T01:45:50;99898.13;;;20.73;47.99
58686;BME280;44465;53.206;-6.106;2023-12-07T01:48:19;99880.69;;;20.68;47.66
58686;BME280;44465;53.206;-6.106;2023-12-07T01:50:46;99911.97;;;20.80;47.80
58686;BME280;44465;53.206;-6.106;2023-12-07T01:53:12;99868.81;;;20.59;47.46
58686;BME280;44465;53.206;-6.106;2023-12-07T01:55:39;99879.28;;;20.62;47.25
58686;BME280;44465;53.206;-6.106;2023-12-07T01:58:06;99881.56;;;20.68;47.37
58686;BME280;44465;53.206;-6.106;2023-12-07T02:00:33;99858.31;;;20.56;47.60
58686;BME280;44465;53.206;-6.106;2023-12-07T02:02:59;99931.69;;;20.92;47.70
58686;BME280;44465;53.206;-6.106;2023-12-07T02:05:26;99918.53;;;20.89;47.78
58686;BME280;44465;53.206;-6.106;2023-12-07T02:07:52;99867.41;;;20.53;47.61
58686;BME280;44465;53.206;-6.106;2023-12-07T02:10:18;99884.00;;;20.71;47.80
58686;BME280;44465;53.206;-6.106;2023-12-07T02:12:45;99849.53;;;20.54;47.69
58686;BME280;44465;53.206;-6.106;2023-12-07T02:15:11;99876.94;;;20.70;47.90
58686;BME280;44465;53.206;-6.106;2023-12-07T02:21:15;99830.91;;;20.52;47.76
58686;BME280;44465;53.206;-6.106;2023-12-07T02:23:44;99818.50;;;20.51;47.61
58686;BME280;44465;53.206;-6.106;2023-12-07T02:26:12;99876.03;;;20.84;47.91
58686;BME280;44465;53.206;-6.106;2023-12-07T02:28:53;99851.81;;;20.73;47.71
58686;BME280;44465;53.206;-6.106;2023-12-07T02:31:19;99814.22;;;20.49;47.60
58686;BME280;44465;53.206;-6.106;2023-12-07T02:33:47;99868.22;;;20.81;47.64
58686;BME280;44465;53.206;-6.106;2023-12-07T02:44:13;99800.94;;;20.47;47.65
58686;BME280;44465;53.206;-6.106;2023-12-07T02:46:49;99800.09;;;20.46;47.53
58686;BME280;44465;53.206;-6.106;2023-12-07T02:49:30;99806.72;;;20.54;47.75
58686;BME280;44465;53.206;-6.106;2023-12-07T02:59:29;99789.41;;;20.46;47.48
58686;BME280;44465;53.206;-6.106;2023-12-07T03:02:00;99793.91;;;20.59;47.50
58686;BME280;44465;53.206;-6.106;2023-12-07T03:09:03;99785.97;;;20.44;47.54
58686;BME280;44465;53.206;-6.106;2023-12-07T03:19:28;99784.56;;;20.52;47.68
58686;BME280;44465;53.206;-6.106;2023-12-07T03:26:33;99787.69;;;20.71;47.77
58686;BME280;44465;53.206;-6.106;2023-12-07T03:40:57;99733.75;;;20.52;47.58
58686;BME280;44465;53.206;-6.106;2023-12-07T03:43:45;99719.44;;;20.53;47.88
58686;BME280;44465;53.206;-6.106;2023-12-07T03:46:11;99708.53;;;20.56;47.40
58686;BME280;44465;53.206;-6.106;2023-12-07T03:48:39;99679.44;;;20.38;47.58
58686;BME280;44465;53.206;-6.106;2023-12-07T03:55:46;99668.50;;;20.41;47.83
58686;BME280;44465;53.206;-6.106;2023-12-07T03:58:12;99717.59;;;20.66;47.82
58686;BME280;44465;53.206;-6.106;2023-12-07T04:00:41;99689.34;;;20.62;47.69
58686;BME280;44465;53.206;-6.106;2023-12-07T04:03:35;99657.81;;;20.41;47.63
58686;BME280;44465;53.206;-6.106;2023-12-07T04:06:29;99627.91;;;20.36;47.82
58686;BME280;44465;53.206;-6.106;2023-12-07T04:08:57;99665.69;;;20.69;47.83
58686;BME280;44465;53.206;-6.106;2023-12-07T04:11:23;99643.28;;;20.45;47.67
58686;BME280;44465;53.206;-6.106;2023-12-07T04:13:49;99672.22;;;20.65;47.62
58686;BME280;44465;53.206;-6.106;2023-12-07T04:16:17;99630.00;;;20.44;47.45
58686;BME280;44465;53.206;-6.106;2023-12-07T04:18:43;99674.69;;;20.68;47.80
58686;BME280;44465;53.206;-6.106;2023-12-07T04:21:09;99670.22;;;20.68;47.57
58686;BME280;44465;53.206;-6.106;2023-12-07T04:23:37;99615.66;;;20.45;47.40
58686;BME280;44465;53.206;-6.106;2023-12-07T04:26:08;99608.84;;;20.41;47.71
58686;BME280;44465;53.206;-6.106;2023-12-07T04:28:37;99607.66;;;20.45;47.65
58686;BME280;44465;53.206;-6.106;2023-12-07T04:31:03;99645.06;;;20.71;47.65
58686;BME280;44465;53.206;-6.106;2023-12-07T04:33:29;99600.50;;;20.45;47.52
58686;BME280;44465;53.206;-6.106;2023-12-07T04:35:55;99607.44;;;20.48;47.88
58686;BME280;44465;53.206;-6.106;2023-12-07T04:38:20;99615.66;;;20.58;47.37
58686;BME280;44465;53.206;-6.106;2023-12-07T04:40:49;99590.75;;;20.44;47.62
58686;BME280;44465;53.206;-6.106;2023-12-07T04:43:15;99606.88;;;20.56;47.76
58686;BME280;44465;53.206;-6.106;2023-12-07T04:45:43;99587.47;;;20.41;47.82
58686;BME280;44465;53.206;-6.106;2023-12-07T04:48:28;99626.03;;;20.75;47.55
58686;BME280;44465;53.206;-6.106;2023-12-07T05:10:11;99597.44;;;20.63;47.84
58686;BME280;44465;53.206;-6.106;2023-12-07T05:17:55;99573.09;;;20.55;47.74
58686;BME280;44465;53.206;-6.106;2023-12-07T05:20:28;99544.75;;;20.39;47.89
58686;BME280;44465;53.206;-6.106;2023-12-07T05:23:07;99536.75;;;20.39;47.99
58686;BME280;44465;53.206;-6.106;2023-12-07T05:25:40;99530.44;;;20.40;47.66
58686;BME280;44465;53.206;-6.106;2023-12-07T05:28:09;99538.44;;;20.40;47.69
58686;BME280;44465;53.206;-6.106;2023-12-07T05:30:38;99548.72;;;20.46;47.62
58686;BME280;44465;53.206;-6.106;2023-12-07T05:33:06;99562.16;;;20.58;47.72
58686;BME280;44465;53.206;-6.106;2023-12-07T05:35:33;99523.28;;;20.41;47.88
58686;BME280;44465;53.206;-6.106;2023-12-07T05:37:59;99569.41;;;20.69;47.78
58686;BME280;44465;53.206;-6.106;2023-12-07T05:40:25;99523.03;;;20.44;47.87
58686;BME280;44465;53.206;-6.106;2023-12-07T05:42:51;99506.38;;;20.40;47.86
58686;BME280;44465;53.206;-6.106;2023-12-07T05:45:25;99555.91;;;20.70;47.83
58686;BME280;44465;53.206;-6.106;2023-12-07T05:47:51;99546.41;;;20.66;47.89
58686;BME280;44465;53.206;-6.106;2023-12-07T05:50:17;99513.97;;;20.46;48.09
58686;BME280;44465;53.206;-6.106;2023-12-07T05:52:59;99514.25;;;20.55;47.83
58686;BME280;44465;53.206;-6.106;2023-12-07T05:55:25;99512.13;;;20.47;47.81
58686;BME280;44465;53.206;-6.106;2023-12-07T05:57:56;99507.88;;;20.44;47.58
58686;BME280;44465;53.206;-6.106;2023-12-07T06:00:32;99507.25;;;20.41;48.19
58686;BME280;44465;53.206;-6.106;2023-12-07T06:02:57;99546.91;;;20.71;47.89
58686;BME280;44465;53.206;-6.106;2023-12-07T06:05:23;99496.94;;;20.48;48.18
58686;BME280;44465;53.206;-6.106;2023-12-07T06:07:51;99505.88;;;20.59;47.80
58686;BME280;44465;53.206;-6.106;2023-12-07T06:10:19;99475.03;;;20.42;47.77
58686;BME280;44465;53.206;-6.106;2023-12-07T06:12:50;99462.53;;;20.43;47.68
58686;BME280;44465;53.206;-6.106;2023-12-07T06:15:21;99449.25;;;20.41;47.81
58686;BME280;44465;53.206;-6.106;2023-12-07T06:17:47;99498.75;;;20.71;47.86
58686;BME280;44465;53.206;-6.106;2023-12-07T06:20:12;99441.75;;;20.46;48.16
58686;BME280;44465;53.206;-6.106;2023-12-07T06:22:38;99457.13;;;20.56;47.92
58686;BME280;44465;53.206;-6.106;2023-12-07T06:25:04;99458.31;;;20.52;47.85
58686;BME280;44465;53.206;-6.106;2023-12-07T06:27:30;99454.16;;;20.48;47.82
58686;BME280;44465;53.206;-6.106;2023-12-07T06:29:59;99464.63;;;20.51;47.98
58686;BME280;44465;53.206;-6.106;2023-12-07T06:32:25;99496.94;;;20.72;47.76
58686;BME280;44465;53.206;-6.106;2023-12-07T06:34:50;99464.88;;;20.48;47.92
58686;BME280;44465;53.206;-6.106;2023-12-07T06:37:16;99476.59;;;20.58;47.73
58686;BME280;44465;53.206;-6.106;2023-12-07T06:39:42;99491.81;;;20.69;47.89
58686;BME280;44465;53.206;-6.106;2023-12-07T06:42:08;99519.06;;;20.87;47.86
58686;BME280;44465;53.206;-6.106;2023-12-07T06:44:34;99482.00;;;20.69;47.89
58686;BME280;44465;53.206;-6.106;2023-12-07T06:47:00;99432.03;;;20.45;48.16
58686;BME280;44465;53.206;-6.106;2023-12-07T06:49:28;99458.22;;;20.65;47.62
58686;BME280;44465;53.206;-6.106;2023-12-07T06:51:56;99415.47;;;20.40;47.90
58686;BME280;44465;53.206;-6.106;2023-12-07T06:54:22;99412.44;;;20.45;47.86
58686;BME280;44465;53.206;-6.106;2023-12-07T06:56:51;99455.75;;;20.74;47.92
58686;BME280;44465;53.206;-6.106;2023-12-07T06:59:17;99465.03;;;20.82;47.84
58686;BME280;44465;53.206;-6.106;2023-12-07T07:01:46;99402.63;;;20.45;47.81
58686;BME280;44465;53.206;-6.106;2023-12-07T07:04:22;99444.09;;;20.75;47.68
58686;BME280;44465;53.206;-6.106;2023-12-07T07:06:47;99420.47;;;20.69;47.87
58686;BME280;44465;53.206;-6.106;2023-12-07T07:09:14;99384.00;;;20.44;48.17
58686;BME280;44465;53.206;-6.106;2023-12-07T07:11:47;99416.78;;;20.70;47.84
58686;BME280;44465;53.206;-6.106;2023-12-07T07:14:14;99388.19;;;20.59;48.07
58686;BME280;44465;53.206;-6.106;2023-12-07T07:16:40;99404.41;;;20.69;47.82
58686;BME280;44465;53.206;-6.106;2023-12-07T07:19:05;99365.41;;;20.42;47.96
58686;BME280;44465;53.206;-6.106;2023-12-07T07:21:31;99378.59;;;20.57;47.95
58686;BME280;44465;53.206;-6.106;2023-12-07T07:23:57;99364.47;;;20.55;47.82
58686;BME280;44465;53.206;-6.106;2023-12-07T07:26:23;99343.44;;;20.50;47.86
58686;BME280;44465;53.206;-6.106;2023-12-07T07:28:52;99323.38;;;20.44;47.88
58686;BME280;44465;53.206;-6.106;2023-12-07T07:31:18;99308.06;;;20.46;48.08
58686;BME280;44465;53.206;-6.106;2023-12-07T07:33:45;99332.78;;;20.61;47.84
58686;BME280;44465;53.206;-6.106;2023-12-07T07:36:18;99305.38;;;20.46;47.92
58686;BME280;44465;53.206;-6.106;2023-12-07T07:38:50;99280.06;;;20.39;48.09
58686;BME280;44465;53.206;-6.106;2023-12-07T07:41:18;99304.41;;;20.48;48.11
58686;BME280;44465;53.206;-6.106;2023-12-07T07:43:50;99317.66;;;20.49;47.99
58686;BME280;44465;53.206;-6.106;2023-12-07T07:46:19;99339.97;;;20.72;48.14
58686;BME280;44465;53.206;-6.106;2023-12-07T07:49:02;99295.88;;;20.42;48.15
58686;BME280;44465;53.206;-6.106;2023-12-07T07:52:05;99353.81;;;20.66;48.36
58686;BME280;44465;53.206;-6.106;2023-12-07T07:54:46;99302.44;;;20.38;48.07
58686;BME280;44465;53.206;-6.106;2023-12-07T07:57:21;99313.41;;;20.46;48.15
58686;BME280;44465;53.206;-6.106;2023-12-07T07:59:52;99302.94;;;20.43;48.08
58686;BME280;44465;53.206;-6.106;2023-12-07T08:03:02;99291.16;;;20.46;48.23
58686;BME280;44465;53.206;-6.106;2023-12-07T08:05:46;99294.69;;;20.46;48.30
58686;BME280;44465;53.206;-6.106;2023-12-07T08:11:45;99261.63;;;20.48;48.49
58686;BME280;44465;53.206;-6.106;2023-12-07T08:14:14;99280.84;;;20.64;48.31
58686;BME280;44465;53.206;-6.106;2023-12-07T08:16:47;99302.50;;;20.72;48.23
58686;BME280;44465;53.206;-6.106;2023-12-07T08:19:14;99291.44;;;20.66;48.11
58686;BME280;44465;53.206;-6.106;2023-12-07T08:21:50;99312.03;;;20.76;48.24
58686;BME280;44465;53.206;-6.106;2023-12-07T08:28:20;99265.28;;;20.46;48.30
58686;BME280;44465;53.206;-6.106;2023-12-07T08:31:09;99288.41;;;20.59;48.19
58686;BME280;44465;53.206;-6.106;2023-12-07T08:33:47;99290.09;;;20.60;48.35
58686;BME280;44465;53.206;-6.106;2023-12-07T08:36:22;99265.28;;;20.46;48.43
58686;BME280;44465;53.206;-6.106;2023-12-07T08:39:00;99256.28;;;20.48;48.42
58686;BME280;44465;53.206;-6.106;2023-12-07T08:41:53;99263.94;;;20.52;48.26
58686;BME280;44465;53.206;-6.106;2023-12-07T08:44:29;99264.78;;;20.53;48.33
58686;BME280;44465;53.206;-6.106;2023-12-07T08:50:09;99295.44;;;20.71;48.26
58686;BME280;44465;53.206;-6.106;2023-12-07T08:52:49;99311.31;;;20.74;48.53
58686;BME280;44465;53.206;-6.106;2023-12-07T08:55:58;99254.81;;;20.43;48.37
58686;BME280;44465;53.206;-6.106;2023-12-07T08:58:45;99301.34;;;20.76;48.14
58686;BME280;44465;53.206;-6.106;2023-12-07T09:24:38;99228.56;;;20.37;48.40
58686;BME280;44465;53.206;-6.106;2023-12-07T09:35:19;99221.53;;;20.48;48.27
58686;BME280;44465;53.206;-6.106;2023-12-07T09:38:11;99199.63;;;20.42;48.26
58686;BME280;44465;53.206;-6.106;2023-12-07T09:48:57;99208.41;;;20.67;48.70
58686;BME280;44465;53.206;-6.106;2023-12-07T10:44:20;99114.56;;;20.36;48.75
58686;BME280;44465;53.206;-6.106;2023-12-07T11:21:50;99040.56;;;20.37;48.63
58686;BME280;44465;53.206;-6.106;2023-12-07T11:28:35;99081.38;;;20.84;48.45
58686;BME280;44465;53.206;-6.106;2023-12-07T11:42:29;99005.88;;;20.69;48.81
58686;BME280;44465;53.206;-6.106;2023-12-07T11:44:55;99004.63;;;20.73;49.12
58686;BME280;44465;53.206;-6.106;2023-12-07T11:54:49;98999.06;;;20.76;48.90
58686;BME280;44465;53.206;-6.106;2023-12-07T11:57:39;98980.19;;;20.78;48.83
58686;BME280;44465;53.206;-6.106;2023-12-07T12:00:17;98932.00;;;20.57;49.00
58686;BME280;44465;53.206;-6.106;2023-12-07T12:02:51;98928.72;;;20.53;48.92
58686;BME280;44465;53.206;-6.106;2023-12-07T12:05:44;99009.19;;;20.94;48.91
58686;BME280;44465;53.206;-6.106;2023-12-07T12:08:17;98959.53;;;20.80;49.12
58686;BME280;44465;53.206;-6.106;2023-12-07T12:14:15;98901.13;;;20.53;49.19
58686;BME280;44465;53.206;-6.106;2023-12-07T12:16:47;98912.50;;;20.66;49.22
58686;BME280;44465;53.206;-6.106;2023-12-07T12:19:13;98941.56;;;20.92;49.03
58686;BME280;44465;53.206;-6.106;2023-12-07T12:21:40;98903.31;;;20.59;48.96
58686;BME280;44465;53.206;-6.106;2023-12-07T12:24:09;98938.31;;;20.88;49.14
58686;BME280;44465;53.206;-6.106;2023-12-07T12:26:37;98938.84;;;20.82;49.08
58686;BME280;44465;53.206;-6.106;2023-12-07T12:29:04;98926.09;;;20.74;48.91
58686;BME280;44465;53.206;-6.106;2023-12-07T12:31:30;98923.63;;;20.83;48.80
58686;BME280;44465;53.206;-6.106;2023-12-07T12:33:56;98924.09;;;20.88;49.12
58686;BME280;44465;53.206;-6.106;2023-12-07T12:36:22;98876.00;;;20.76;49.02
58686;BME280;44465;53.206;-6.106;2023-12-07T12:38:52;98899.50;;;20.94;49.34
58686;BME280;44465;53.206;-6.106;2023-12-07T12:41:24;98856.09;;;20.90;49.11
58686;BME280;44465;53.206;-6.106;2023-12-07T12:43:51;98891.41;;;21.05;49.32
58686;BME280;44465;53.206;-6.106;2023-12-07T12:46:40;98864.47;;;20.97;49.15
58686;BME280;44465;53.206;-6.106;2023-12-07T12:49:05;98877.38;;;20.92;49.19
58686;BME280;44465;53.206;-6.106;2023-12-07T12:51:32;98861.53;;;21.00;49.02
58686;BME280;44465;53.206;-6.106;2023-12-07T12:53:59;98870.53;;;20.99;48.84
58686;BME280;44465;53.206;-6.106;2023-12-07T12:56:27;98892.84;;;21.10;49.41
58686;BME280;44465;53.206;-6.106;2023-12-07T12:58:54;98895.19;;;21.03;49.02
58686;BME280;44465;53.206;-6.106;2023-12-07T13:01:23;98872.75;;;20.94;49.18
58686;BME280;44465;53.206;-6.106;2023-12-07T13:03:48;98874.97;;;20.89;49.35
58686;BME280;44465;53.206;-6.106;2023-12-07T13:06:15;98904.63;;;21.07;49.26
58686;BME280;44465;53.206;-6.106;2023-12-07T13:08:43;98875.16;;;20.97;49.37
58686;BME280;44465;53.206;-6.106;2023-12-07T13:11:09;98858.91;;;20.89;49.51
58686;BME280;44465;53.206;-6.106;2023-12-07T13:13:35;98898.38;;;21.18;49.63
58686;BME280;44465;53.206;-6.106;2023-12-07T13:16:00;98890.88;;;21.12;49.57
58686;BME280;44465;53.206;-6.106;2023-12-07T13:18:26;98846.53;;;20.88;49.59
58686;BME280;44465;53.206;-6.106;2023-12-07T13:20:52;98860.09;;;20.96;49.49
58686;BME280;44465;53.206;-6.106;2023-12-07T13:23:17;98899.69;;;21.23;49.41
58686;BME280;44465;53.206;-6.106;2023-12-07T13:25:43;98863.53;;;21.08;49.72
58686;BME280;44465;53.206;-6.106;2023-12-07T13:28:08;98852.06;;;20.96;49.63
58686;BME280;44465;53.206;-6.106;2023-12-07T13:30:34;98854.88;;;20.95;49.64
58686;BME280;44465;53.206;-6.106;2023-12-07T13:33:01;98851.06;;;20.97;49.36
58686;BME280;44465;53.206;-6.106;2023-12-07T13:35:30;98849.91;;;20.90;49.21
58686;BME280;44465;53.206;-6.106;2023-12-07T13:37:55;98910.97;;;21.27;49.37
58686;BME280;44465;53.206;-6.106;2023-12-07T13:40:21;98827.06;;;20.86;49.32
58686;BME280;44465;53.206;-6.106;2023-12-07T13:42:46;98832.41;;;20.86;49.45
58686;BME280;44465;53.206;-6.106;2023-12-07T13:45:12;98842.88;;;20.89;49.37
58686;BME280;44465;53.206;-6.106;2023-12-07T13:47:38;98843.84;;;20.88;49.28
58686;BME280;44465;53.206;-6.106;2023-12-07T13:50:04;98837.53;;;20.89;49.23
58686;BME280;44465;53.206;-6.106;2023-12-07T13:52:31;98876.19;;;21.06;49.60
58686;BME280;44465;53.206;-6.106;2023-12-07T13:54:57;98849.53;;;20.95;49.24
58686;BME280;44465;53.206;-6.106;2023-12-07T13:57:24;98887.94;;;21.15;49.31
58686;BME280;44465;53.206;-6.106;2023-12-07T13:59:50;98860.53;;;21.01;49.10
58686;BME280;44465;53.206;-6.106;2023-12-07T14:02:16;98845.97;;;20.94;49.21
58686;BME280;44465;53.206;-6.106;2023-12-07T14:04:42;98867.47;;;21.04;49.42
58686;BME280;44465;53.206;-6.106;2023-12-07T14:07:13;98870.25;;;21.02;49.36
58686;BME280;44465;53.206;-6.106;2023-12-07T14:09:44;98859.63;;;20.91;49.60
58686;BME280;44465;53.206;-6.106;2023-12-07T14:12:10;98873.22;;;20.99;49.12
58686;BME280;44465;53.206;-6.106;2023-12-07T14:14:41;98908.38;;;21.16;49.35
58686;BME280;44465;53.206;-6.106;2023-12-07T14:17:08;98905.28;;;21.20;49.17
58686;BME280;44465;53.206;-6.106;2023-12-07T14:19:34;98904.13;;;21.13;49.21
58686;BME280;44465;53.206;-6.106;2023-12-07T14:22:00;98881.25;;;20.99;49.68
58686;BME280;44465;53.206;-6.106;2023-12-07T14:24:27;98864.91;;;21.02;49.48
58686;BME280;44465;53.206;-6.106;2023-12-07T14:26:57;98868.84;;;20.98;49.44
58686;BME280;44465;53.206;-6.106;2023-12-07T14:29:23;98873.84;;;20.91;49.29
58686;BME280;44465;53.206;-6.106;2023-12-07T14:31:50;98887.97;;;20.94;49.25
58686;BME280;44465;53.206;-6.106;2023-12-07T14:34:17;98945.44;;;21.42;49.39
58686;BME280;44465;53.206;-6.106;2023-12-07T14:36:43;98924.22;;;21.29;49.20
58686;BME280;44465;53.206;-6.106;2023-12-07T14:39:13;98888.97;;;21.02;49.16
58686;BME280;44465;53.206;-6.106;2023-12-07T14:41:49;98906.66;;;21.15;48.88
58686;BME280;44465;53.206;-6.106;2023-12-07T14:44:17;98943.03;;;21.38;49.07
58686;BME280;44465;53.206;-6.106;2023-12-07T14:46:43;98940.09;;;21.42;49.36
58686;BME280;44465;53.206;-6.106;2023-12-07T14:49:11;98883.38;;;21.05;49.26
58686;BME280;44465;53.206;-6.106;2023-12-07T14:59:28;98901.22;;;21.16;49.34
58686;BME280;44465;53.206;-6.106;2023-12-07T15:04:51;98914.69;;;21.15;49.34
58686;BME280;44465;53.206;-6.106;2023-12-07T15:07:16;98913.00;;;21.14;48.98
58686;BME280;44465;53.206;-6.106;2023-12-07T15:09:42;98922.22;;;21.21;49.17
58686;BME280;44465;53.206;-6.106;2023-12-07T15:12:08;98948.53;;;21.37;49.37
58686;BME280;44465;53.206;-6.106;2023-12-07T15:14:33;98920.72;;;21.28;48.99
58686;BME280;44465;53.206;-6.106;2023-12-07T15:16:59;98891.94;;;20.99;49.23
58686;BME280;44465;53.206;-6.106;2023-12-07T15:19:25;98931.81;;;21.23;49.05
58686;BME280;44465;53.206;-6.106;2023-12-07T15:21:50;98943.88;;;21.39;49.07
58686;BME280;44465;53.206;-6.106;2023-12-07T15:24:17;98904.56;;;21.18;48.90
58686;BME280;44465;53.206;-6.106;2023-12-07T15:26:43;98937.94;;;21.35;49.12
58686;BME280;44465;53.206;-6.106;2023-12-07T15:29:09;98874.19;;;20.98;49.34
58686;BME280;44465;53.206;-6.106;2023-12-07T15:31:35;98904.56;;;21.18;49.38
58686;BME280;44465;53.206;-6.106;2023-12-07T15:34:00;98900.81;;;21.21;49.17
58686;BME280;44465;53.206;-6.106;2023-12-07T15:36:26;98876.78;;;21.10;48.97
58686;BME280;44465;53.206;-6.106;2023-12-07T15:38:51;98897.81;;;21.14;49.18
58686;BME280;44465;53.206;-6.106;2023-12-07T15:41:18;98888.00;;;21.03;49.00
58686;BME280;44465;53.206;-6.106;2023-12-07T15:43:44;98904.78;;;21.05;49.29
58686;BME280;44465;53.206;-6.106;2023-12-07T15:46:09;98907.47;;;21.05;49.30
58686;BME280;44465;53.206;-6.106;2023-12-07T15:48:35;98936.00;;;21.16;49.45
58686;BME280;44465;53.206;-6.106;2023-12-07T15:51:00;98961.59;;;21.30;49.34
58686;BME280;44465;53.206;-6.106;2023-12-07T15:53:27;98973.28;;;21.29;49.04
58686;BME280;44465;53.206;-6.106;2023-12-07T15:55:54;98970.59;;;21.29;49.37
58686;BME280;44465;53.206;-6.106;2023-12-07T15:58:19;98956.00;;;21.22;49.36
58686;BME280;44465;53.206;-6.106;2023-12-07T16:00:45;98940.25;;;21.19;49.15
58686;BME280;44465;53.206;-6.106;2023-12-07T16:03:11;98951.84;;;21.08;47.77
58686;BME280;44465;53.206;-6.106;2023-12-07T16:05:36;98928.19;;;20.92;48.89
58686;BME280;44465;53.206;-6.106;2023-12-07T16:08:02;98963.53;;;21.07;49.66
58686;BME280;44465;53.206;-6.106;2023-12-07T16:10:29;98974.56;;;21.14;49.32
58686;BME280;44465;53.206;-6.106;2023-12-07T16:12:56;98974.31;;;21.17;49.56
58686;BME280;44465;53.206;-6.106;2023-12-07T16:15:23;98962.78;;;21.16;49.14
58686;BME280;44465;53.206;-6.106;2023-12-07T16:17:53;98977.44;;;21.22;49.24
58686;BME280;44465;53.206;-6.106;2023-12-07T16:20:21;98995.66;;;21.28;49.45
58686;BME280;44465;53.206;-6.106;2023-12-07T16:22:47;98996.50;;;21.29;49.56
58686;BME280;44465;53.206;-6.106;2023-12-07T16:25:13;98966.53;;;21.14;50.08
58686;BME280;44465;53.206;-6.106;2023-12-07T16:27:39;98975.22;;;21.27;49.61
58686;BME280;44465;53.206;-6.106;2023-12-07T16:30:06;98964.03;;;21.22;49.75
58686;BME280;44465;53.206;-6.106;2023-12-07T16:32:36;98995.06;;;21.46;49.71
58686;BME280;44465;53.206;-6.106;2023-12-07T16:35:02;99014.28;;;21.51;50.32
58686;BME280;44465;53.206;-6.106;2023-12-07T16:37:28;99011.81;;;21.59;50.64
58686;BME280;44465;53.206;-6.106;2023-12-07T16:39:59;98974.97;;;21.30;51.64
58686;BME280;44465;53.206;-6.106;2023-12-07T16:42:40;98991.59;;;21.55;51.47
58686;BME280;44465;53.206;-6.106;2023-12-07T16:45:07;99001.94;;;21.60;52.00
58686;BME280;44465;53.206;-6.106;2023-12-07T16:47:33;98999.91;;;21.73;51.28
58686;BME280;44465;53.206;-6.106;2023-12-07T16:49:59;99024.94;;;21.83;51.31
58686;BME280;44465;53.206;-6.106;2023-12-07T16:52:26;99012.66;;;21.81;51.07
58686;BME280;44465;53.206;-6.106;2023-12-07T16:54:51;99007.69;;;21.76;50.89
58686;BME280;44465;53.206;-6.106;2023-12-07T16:57:21;99020.09;;;21.77;50.68
58686;BME280;44465;53.206;-6.106;2023-12-07T16:59:47;99009.97;;;21.81;50.56
58686;BME280;44465;53.206;-6.106;2023-12-07T17:02:14;99044.50;;;22.05;50.64
58686;BME280;44465;53.206;-6.106;2023-12-07T17:04:41;99006.00;;;21.75;49.78
58686;BME280;44465;53.206;-6.106;2023-12-07T17:07:07;98998.34;;;21.71;50.97
58686;BME280;44465;53.206;-6.106;2023-12-07T17:09:33;99043.06;;;22.01;51.18
58686;BME280;44465;53.206;-6.106;2023-12-07T17:12:00;98998.03;;;21.95;51.05
58686;BME280;44465;53.206;-6.106;2023-12-07T17:14:26;99018.00;;;22.12;50.79
58686;BME280;44465;53.206;-6.106;2023-12-07T17:16:53;99030.69;;;22.10;50.56
58686;BME280;44465;53.206;-6.106;2023-12-07T17:19:18;99019.81;;;22.02;51.03
58686;BME280;44465;53.206;-6.106;2023-12-07T17:21:45;99010.00;;;21.91;50.92
58686;BME280;44465;53.206;-6.106;2023-12-07T17:24:13;99068.13;;;22.21;50.59
58686;BME280;44465;53.206;-6.106;2023-12-07T17:26:40;99006.88;;;21.85;50.47
58686;BME280;44465;53.206;-6.106;2023-12-07T17:29:13;98999.25;;;21.81;50.38
58686;BME280;44465;53.206;-6.106;2023-12-07T17:31:40;99059.38;;;22.19;50.71
58686;BME280;44465;53.206;-6.106;2023-12-07T17:34:08;99037.59;;;22.03;50.26
58686;BME280;44465;53.206;-6.106;2023-12-07T17:36:34;99019.03;;;21.90;50.31